CheckWX is a tool to help pilots better visualize weather data.  It is not intended as a substitute for an official pre-flight weather briefing.

20:56:49 UTC

KOSA METAR
Mount Pleasant Regional Airport
Mount Pleasant, Texas, USA
Current

22 mins ago

KOSA 232035Z AUTO 19007KT 10SM SCT028 25/17 A3001 RMK AO1 T02490172
Observed
Apr-23 @ 20:35 UTC
Wind
  • 190° at 7 KTS
Visibility
10 SM
Flight Rules
VFR
Cloud Levels
  • Scattered at 2,800' AGL
Temperature
25°C / 77°F
Dewpoint
17°C / 63°F
Humidity
61%
Altimeter
30.01" Hg
Pressure
1016.22 hPa
Previous

42 mins ago

KOSA 232015Z AUTO 19012G15KT 10SM SCT028 SCT037 25/17 A3002 RMK AO1 T02500173
Observed
Apr-23 @ 20:15 UTC
Wind
  • 190° at 12 KTS
  • Gusting to 15 KTS
Visibility
10 SM
Flight Rules
VFR
Cloud Levels
  • Scattered at 2,800' AGL
  • Scattered at 3,700' AGL
Temperature
25°C / 77°F
Dewpoint
17°C / 63°F
Humidity
61%
Altimeter
30.02" Hg
Pressure
1016.62 hPa
Previous

1 hour ago

KOSA 231955Z AUTO 20009KT 10SM SCT028 SCT037 SCT043 25/17 A3003 RMK AO1 T02480170
Observed
Apr-23 @ 19:55 UTC
Wind
  • 200° at 9 KTS
Visibility
10 SM
Flight Rules
VFR
Cloud Levels
  • Scattered at 2,800' AGL
  • Scattered at 3,700' AGL
  • Scattered at 4,300' AGL
Temperature
25°C / 77°F
Dewpoint
17°C / 63°F
Humidity
61%
Altimeter
30.03" Hg
Pressure
1016.92 hPa